sensor_id;sensor_type;location;lat;lon;timestamp;P1;durP1;ratioP1;P2;durP2;ratioP2
11548;SDS011;61444;59.472;18.306;2023-06-04T00:00:40;4.07;;;3.23;;
11548;SDS011;61444;59.472;18.306;2023-06-04T00:02:49;3.73;;;3.30;;
11548;SDS011;61444;59.472;18.306;2023-06-04T00:04:58;5.13;;;3.40;;
11548;SDS011;61444;59.472;18.306;2023-06-04T00:07:06;4.93;;;3.23;;
11548;SDS011;61444;59.472;18.306;2023-06-04T00:09:15;3.43;;;3.07;;
11548;SDS011;61444;59.472;18.306;2023-06-04T00:11:24;5.23;;;3.43;;
11548;SDS011;61444;59.472;18.306;2023-06-04T00:13:34;3.33;;;2.83;;
11548;SDS011;61444;59.472;18.306;2023-06-04T00:15:43;5.57;;;3.70;;
11548;SDS011;61444;59.472;18.306;2023-06-04T00:17:52;4.27;;;3.27;;
11548;SDS011;61444;59.472;18.306;2023-06-04T00:20:03;6.20;;;3.10;;
11548;SDS011;61444;59.472;18.306;2023-06-04T00:22:13;4.77;;;3.10;;
11548;SDS011;61444;59.472;18.306;2023-06-04T00:24:22;4.60;;;3.23;;
11548;SDS011;61444;59.472;18.306;2023-06-04T00:26:30;4.90;;;3.03;;
11548;SDS011;61444;59.472;18.306;2023-06-04T00:28:41;4.23;;;2.93;;
11548;SDS011;61444;59.472;18.306;2023-06-04T00:30:50;5.03;;;3.30;;
11548;SDS011;61444;59.472;18.306;2023-06-04T00:32:59;4.50;;;3.10;;
11548;SDS011;61444;59.472;18.306;2023-06-04T00:35:09;4.03;;;2.87;;
11548;SDS011;61444;59.472;18.306;2023-06-04T00:37:18;3.90;;;2.97;;
11548;SDS011;61444;59.472;18.306;2023-06-04T00:39:27;4.30;;;2.63;;
11548;SDS011;61444;59.472;18.306;2023-06-04T00:41:35;3.10;;;2.80;;
11548;SDS011;61444;59.472;18.306;2023-06-04T00:43:46;3.37;;;2.70;;
11548;SDS011;61444;59.472;18.306;2023-06-04T00:46:03;3.83;;;2.50;;
11548;SDS011;61444;59.472;18.306;2023-06-04T00:48:12;3.77;;;2.60;;
11548;SDS011;61444;59.472;18.306;2023-06-04T00:50:20;3.00;;;2.40;;
11548;SDS011;61444;59.472;18.306;2023-06-04T00:52:29;3.03;;;2.70;;
11548;SDS011;61444;59.472;18.306;2023-06-04T00:54:38;3.10;;;2.20;;
11548;SDS011;61444;59.472;18.306;2023-06-04T00:56:47;3.00;;;2.03;;
11548;SDS011;61444;59.472;18.306;2023-06-04T00:58:58;3.17;;;2.60;;
11548;SDS011;61444;59.472;18.306;2023-06-04T01:01:07;2.50;;;2.30;;
11548;SDS011;61444;59.472;18.306;2023-06-04T01:03:23;2.67;;;2.00;;
11548;SDS011;61444;59.472;18.306;2023-06-04T01:05:36;1.53;;;1.43;;
11548;SDS011;61444;59.472;18.306;2023-06-04T01:07:48;3.10;;;1.67;;
11548;SDS011;61444;59.472;18.306;2023-06-04T01:09:59;2.80;;;1.70;;
11548;SDS011;61444;59.472;18.306;2023-06-04T01:12:08;3.33;;;1.57;;
11548;SDS011;61444;59.472;18.306;2023-06-04T01:14:19;2.07;;;1.60;;
11548;SDS011;61444;59.472;18.306;2023-06-04T01:16:28;1.97;;;1.43;;
11548;SDS011;61444;59.472;18.306;2023-06-04T01:18:42;1.90;;;1.67;;
11548;SDS011;61444;59.472;18.306;2023-06-04T01:20:54;2.20;;;1.33;;
11548;SDS011;61444;59.472;18.306;2023-06-04T01:25:42;1.80;;;1.43;;
11548;SDS011;61444;59.472;18.306;2023-06-04T01:27:54;2.70;;;1.53;;
11548;SDS011;61444;59.472;18.306;2023-06-04T01:30:07;1.97;;;1.77;;
11548;SDS011;61444;59.472;18.306;2023-06-04T01:32:17;2.10;;;1.43;;
11548;SDS011;61444;59.472;18.306;2023-06-04T01:34:26;1.77;;;1.60;;
11548;SDS011;61444;59.472;18.306;2023-06-04T01:36:35;2.90;;;1.80;;
11548;SDS011;61444;59.472;18.306;2023-06-04T01:38:44;1.47;;;1.37;;
11548;SDS011;61444;59.472;18.306;2023-06-04T01:40:53;2.00;;;1.60;;
11548;SDS011;61444;59.472;18.306;2023-06-04T01:43:04;4.87;;;1.70;;
11548;SDS011;61444;59.472;18.306;2023-06-04T01:45:14;2.00;;;1.80;;
11548;SDS011;61444;59.472;18.306;2023-06-04T01:47:23;3.63;;;1.80;;
11548;SDS011;61444;59.472;18.306;2023-06-04T01:49:31;1.80;;;1.70;;
11548;SDS011;61444;59.472;18.306;2023-06-04T01:51:40;3.67;;;2.00;;
11548;SDS011;61444;59.472;18.306;2023-06-04T01:53:49;1.87;;;1.50;;
11548;SDS011;61444;59.472;18.306;2023-06-04T01:55:58;2.10;;;1.80;;
11548;SDS011;61444;59.472;18.306;2023-06-04T01:58:07;2.20;;;1.80;;
11548;SDS011;61444;59.472;18.306;2023-06-04T02:00:18;1.80;;;1.40;;
11548;SDS011;61444;59.472;18.306;2023-06-04T02:02:26;1.63;;;1.40;;
11548;SDS011;61444;59.472;18.306;2023-06-04T02:04:36;1.50;;;1.30;;
11548;SDS011;61444;59.472;18.306;2023-06-04T02:06:47;1.60;;;1.30;;
11548;SDS011;61444;59.472;18.306;2023-06-04T02:08:56;2.50;;;1.33;;
11548;SDS011;61444;59.472;18.306;2023-06-04T02:11:07;1.50;;;1.00;;
11548;SDS011;61444;59.472;18.306;2023-06-04T02:13:16;1.20;;;1.10;;
11548;SDS011;61444;59.472;18.306;2023-06-04T02:15:26;1.93;;;1.07;;
11548;SDS011;61444;59.472;18.306;2023-06-04T02:17:35;1.20;;;0.90;;
11548;SDS011;61444;59.472;18.306;2023-06-04T02:19:46;1.20;;;0.90;;
11548;SDS011;61444;59.472;18.306;2023-06-04T02:21:56;1.20;;;1.10;;
11548;SDS011;61444;59.472;18.306;2023-06-04T02:24:05;0.90;;;0.80;;
11548;SDS011;61444;59.472;18.306;2023-06-04T02:26:14;1.27;;;1.10;;
11548;SDS011;61444;59.472;18.306;2023-06-04T02:28:22;0.93;;;0.83;;
11548;SDS011;61444;59.472;18.306;2023-06-04T02:30:33;0.93;;;0.80;;
11548;SDS011;61444;59.472;18.306;2023-06-04T02:32:42;0.90;;;0.80;;
11548;SDS011;61444;59.472;18.306;2023-06-04T02:34:57;2.63;;;0.90;;
11548;SDS011;61444;59.472;18.306;2023-06-04T02:37:06;1.77;;;0.90;;
11548;SDS011;61444;59.472;18.306;2023-06-04T02:39:15;1.30;;;0.93;;
11548;SDS011;61444;59.472;18.306;2023-06-04T02:41:24;1.40;;;0.90;;
11548;SDS011;61444;59.472;18.306;2023-06-04T02:43:33;1.00;;;0.80;;
11548;SDS011;61444;59.472;18.306;2023-06-04T02:45:43;1.17;;;0.90;;
11548;SDS011;61444;59.472;18.306;2023-06-04T02:47:52;1.27;;;1.17;;
11548;SDS011;61444;59.472;18.306;2023-06-04T02:50:01;1.83;;;0.90;;
11548;SDS011;61444;59.472;18.306;2023-06-04T02:52:10;2.00;;;0.90;;
11548;SDS011;61444;59.472;18.306;2023-06-04T02:54:19;0.80;;;0.80;;
11548;SDS011;61444;59.472;18.306;2023-06-04T02:56:28;2.10;;;1.10;;
11548;SDS011;61444;59.472;18.306;2023-06-04T02:58:37;1.30;;;1.10;;
11548;SDS011;61444;59.472;18.306;2023-06-04T03:00:57;1.20;;;1.10;;
11548;SDS011;61444;59.472;18.306;2023-06-04T03:03:06;1.87;;;0.97;;
11548;SDS011;61444;59.472;18.306;2023-06-04T03:05:15;1.00;;;0.90;;
11548;SDS011;61444;59.472;18.306;2023-06-04T03:07:25;1.30;;;1.10;;
11548;SDS011;61444;59.472;18.306;2023-06-04T03:09:34;1.20;;;1.10;;
11548;SDS011;61444;59.472;18.306;2023-06-04T03:11:43;1.17;;;1.07;;
11548;SDS011;61444;59.472;18.306;2023-06-04T03:13:52;0.90;;;0.90;;
11548;SDS011;61444;59.472;18.306;2023-06-04T03:16:02;1.33;;;0.97;;
11548;SDS011;61444;59.472;18.306;2023-06-04T03:18:16;1.73;;;1.00;;
11548;SDS011;61444;59.472;18.306;2023-06-04T03:20:25;2.10;;;0.93;;
11548;SDS011;61444;59.472;18.306;2023-06-04T03:22:34;1.27;;;0.93;;
11548;SDS011;61444;59.472;18.306;2023-06-04T03:24:42;1.63;;;0.70;;
11548;SDS011;61444;59.472;18.306;2023-06-04T03:26:51;3.67;;;1.10;;
11548;SDS011;61444;59.472;18.306;2023-06-04T03:29:00;2.23;;;0.90;;
11548;SDS011;61444;59.472;18.306;2023-06-04T03:31:11;2.90;;;1.10;;
11548;SDS011;61444;59.472;18.306;2023-06-04T03:33:19;1.50;;;0.90;;
11548;SDS011;61444;59.472;18.306;2023-06-04T03:35:31;1.43;;;0.93;;
11548;SDS011;61444;59.472;18.306;2023-06-04T03:37:40;1.10;;;0.90;;
11548;SDS011;61444;59.472;18.306;2023-06-04T03:39:49;0.80;;;0.80;;
11548;SDS011;61444;59.472;18.306;2023-06-04T03:41:59;1.20;;;0.90;;
11548;SDS011;61444;59.472;18.306;2023-06-04T03:44:08;1.97;;;1.00;;
11548;SDS011;61444;59.472;18.306;2023-06-04T03:46:18;1.97;;;0.90;;
11548;SDS011;61444;59.472;18.306;2023-06-04T03:48:27;1.27;;;0.97;;
11548;SDS011;61444;59.472;18.306;2023-06-04T03:50:35;1.10;;;0.90;;
11548;SDS011;61444;59.472;18.306;2023-06-04T03:52:45;1.77;;;0.80;;
11548;SDS011;61444;59.472;18.306;2023-06-04T03:54:53;1.67;;;0.80;;
11548;SDS011;61444;59.472;18.306;2023-06-04T03:57:02;1.67;;;0.90;;
11548;SDS011;61444;59.472;18.306;2023-06-04T03:59:11;1.43;;;0.90;;
11548;SDS011;61444;59.472;18.306;2023-06-04T04:01:22;0.93;;;0.80;;
11548;SDS011;61444;59.472;18.306;2023-06-04T04:03:33;1.00;;;0.90;;
11548;SDS011;61444;59.472;18.306;2023-06-04T04:05:42;0.80;;;0.70;;
11548;SDS011;61444;59.472;18.306;2023-06-04T04:07:51;1.10;;;0.73;;
11548;SDS011;61444;59.472;18.306;2023-06-04T04:10:00;1.07;;;0.70;;
11548;SDS011;61444;59.472;18.306;2023-06-04T04:12:09;1.73;;;0.87;;
11548;SDS011;61444;59.472;18.306;2023-06-04T04:14:17;1.90;;;1.00;;
11548;SDS011;61444;59.472;18.306;2023-06-04T04:16:28;2.73;;;0.87;;
11548;SDS011;61444;59.472;18.306;2023-06-04T04:18:36;3.00;;;1.03;;
11548;SDS011;61444;59.472;18.306;2023-06-04T04:20:45;1.50;;;1.00;;
11548;SDS011;61444;59.472;18.306;2023-06-04T04:22:54;1.50;;;1.00;;
11548;SDS011;61444;59.472;18.306;2023-06-04T04:25:03;1.57;;;1.00;;
11548;SDS011;61444;59.472;18.306;2023-06-04T04:27:14;1.20;;;0.97;;
11548;SDS011;61444;59.472;18.306;2023-06-04T04:29:23;1.83;;;0.90;;
11548;SDS011;61444;59.472;18.306;2023-06-04T04:31:35;0.80;;;0.60;;
11548;SDS011;61444;59.472;18.306;2023-06-04T04:33:45;1.73;;;0.93;;
11548;SDS011;61444;59.472;18.306;2023-06-04T04:35:54;1.30;;;0.90;;
11548;SDS011;61444;59.472;18.306;2023-06-04T04:38:06;1.00;;;0.60;;
11548;SDS011;61444;59.472;18.306;2023-06-04T04:40:17;1.40;;;0.97;;
11548;SDS011;61444;59.472;18.306;2023-06-04T04:42:25;1.37;;;0.87;;
11548;SDS011;61444;59.472;18.306;2023-06-04T04:44:34;1.43;;;0.90;;
11548;SDS011;61444;59.472;18.306;2023-06-04T04:46:45;0.90;;;0.80;;
11548;SDS011;61444;59.472;18.306;2023-06-04T04:48:56;0.97;;;0.80;;
11548;SDS011;61444;59.472;18.306;2023-06-04T04:51:05;1.67;;;0.90;;
11548;SDS011;61444;59.472;18.306;2023-06-04T04:53:14;1.00;;;0.90;;
11548;SDS011;61444;59.472;18.306;2023-06-04T04:55:22;3.50;;;0.90;;
11548;SDS011;61444;59.472;18.306;2023-06-04T04:57:33;1.07;;;0.70;;
11548;SDS011;61444;59.472;18.306;2023-06-04T04:59:41;0.60;;;0.60;;
11548;SDS011;61444;59.472;18.306;2023-06-04T05:01:52;0.67;;;0.60;;
11548;SDS011;61444;59.472;18.306;2023-06-04T05:04:01;0.67;;;0.67;;
11548;SDS011;61444;59.472;18.306;2023-06-04T05:06:14;0.70;;;0.67;;
11548;SDS011;61444;59.472;18.306;2023-06-04T05:08:23;0.77;;;0.77;;
11548;SDS011;61444;59.472;18.306;2023-06-04T05:10:32;0.70;;;0.70;;
11548;SDS011;61444;59.472;18.306;2023-06-04T05:12:50;1.60;;;0.53;;
11548;SDS011;61444;59.472;18.306;2023-06-04T05:14:59;0.80;;;0.53;;
11548;SDS011;61444;59.472;18.306;2023-06-04T05:17:10;0.93;;;0.70;;
11548;SDS011;61444;59.472;18.306;2023-06-04T05:19:20;0.80;;;0.70;;
11548;SDS011;61444;59.472;18.306;2023-06-04T05:21:29;0.70;;;0.60;;
11548;SDS011;61444;59.472;18.306;2023-06-04T05:23:38;1.90;;;0.67;;
11548;SDS011;61444;59.472;18.306;2023-06-04T05:25:48;0.63;;;0.60;;
11548;SDS011;61444;59.472;18.306;2023-06-04T05:27:58;1.40;;;0.70;;
11548;SDS011;61444;59.472;18.306;2023-06-04T05:30:08;0.70;;;0.63;;
11548;SDS011;61444;59.472;18.306;2023-06-04T05:32:19;1.50;;;0.90;;
11548;SDS011;61444;59.472;18.306;2023-06-04T05:34:29;0.90;;;0.80;;
11548;SDS011;61444;59.472;18.306;2023-06-04T05:36:39;1.30;;;0.70;;
11548;SDS011;61444;59.472;18.306;2023-06-04T05:38:47;0.80;;;0.60;;
11548;SDS011;61444;59.472;18.306;2023-06-04T05:41:04;0.60;;;0.50;;
11548;SDS011;61444;59.472;18.306;2023-06-04T05:43:14;0.90;;;0.67;;
11548;SDS011;61444;59.472;18.306;2023-06-04T05:45:22;3.00;;;0.60;;
11548;SDS011;61444;59.472;18.306;2023-06-04T05:47:33;0.83;;;0.67;;
11548;SDS011;61444;59.472;18.306;2023-06-04T05:49:41;0.60;;;0.60;;
11548;SDS011;61444;59.472;18.306;2023-06-04T05:51:51;1.27;;;0.80;;
11548;SDS011;61444;59.472;18.306;2023-06-04T05:54:00;0.73;;;0.50;;
11548;SDS011;61444;59.472;18.306;2023-06-04T05:56:10;0.80;;;0.70;;
11548;SDS011;61444;59.472;18.306;2023-06-04T05:58:18;0.60;;;0.50;;
11548;SDS011;61444;59.472;18.306;2023-06-04T06:00:27;0.87;;;0.60;;
11548;SDS011;61444;59.472;18.306;2023-06-04T06:02:37;0.50;;;0.50;;
11548;SDS011;61444;59.472;18.306;2023-06-04T06:04:47;0.60;;;0.60;;
11548;SDS011;61444;59.472;18.306;2023-06-04T06:06:55;1.13;;;0.60;;
11548;SDS011;61444;59.472;18.306;2023-06-04T06:09:04;1.00;;;0.63;;
11548;SDS011;61444;59.472;18.306;2023-06-04T06:11:13;0.50;;;0.50;;
11548;SDS011;61444;59.472;18.306;2023-06-04T06:13:22;0.60;;;0.50;;
11548;SDS011;61444;59.472;18.306;2023-06-04T06:15:31;0.60;;;0.60;;
11548;SDS011;61444;59.472;18.306;2023-06-04T06:17:42;1.67;;;0.70;;
11548;SDS011;61444;59.472;18.306;2023-06-04T06:19:51;0.40;;;0.40;;
11548;SDS011;61444;59.472;18.306;2023-06-04T06:22:00;1.00;;;0.83;;
11548;SDS011;61444;59.472;18.306;2023-06-04T06:24:10;0.73;;;0.50;;
11548;SDS011;61444;59.472;18.306;2023-06-04T06:26:18;0.80;;;0.47;;
11548;SDS011;61444;59.472;18.306;2023-06-04T06:28:28;1.93;;;0.60;;
11548;SDS011;61444;59.472;18.306;2023-06-04T06:30:37;0.50;;;0.50;;
11548;SDS011;61444;59.472;18.306;2023-06-04T06:32:46;0.60;;;0.60;;
11548;SDS011;61444;59.472;18.306;2023-06-04T06:34:58;0.80;;;0.77;;
11548;SDS011;61444;59.472;18.306;2023-06-04T06:37:07;0.83;;;0.60;;
11548;SDS011;61444;59.472;18.306;2023-06-04T06:39:17;0.50;;;0.50;;
11548;SDS011;61444;59.472;18.306;2023-06-04T06:41:25;0.77;;;0.60;;
11548;SDS011;61444;59.472;18.306;2023-06-04T06:43:34;0.47;;;0.47;;
11548;SDS011;61444;59.472;18.306;2023-06-04T06:45:43;1.50;;;0.67;;
11548;SDS011;61444;59.472;18.306;2023-06-04T06:47:53;1.10;;;0.57;;
11548;SDS011;61444;59.472;18.306;2023-06-04T06:50:04;0.70;;;0.70;;
11548;SDS011;61444;59.472;18.306;2023-06-04T06:52:13;0.90;;;0.67;;
11548;SDS011;61444;59.472;18.306;2023-06-04T06:54:25;0.73;;;0.73;;
11548;SDS011;61444;59.472;18.306;2023-06-04T06:56:34;0.50;;;0.50;;
11548;SDS011;61444;59.472;18.306;2023-06-04T06:58:44;1.67;;;0.60;;
11548;SDS011;61444;59.472;18.306;2023-06-04T07:00:53;2.83;;;0.67;;
11548;SDS011;61444;59.472;18.306;2023-06-04T07:03:05;0.87;;;0.70;;
11548;SDS011;61444;59.472;18.306;2023-06-04T07:05:15;1.20;;;0.60;;
11548;SDS011;61444;59.472;18.306;2023-06-04T07:07:24;0.80;;;0.70;;
11548;SDS011;61444;59.472;18.306;2023-06-04T07:09:33;1.23;;;0.57;;
11548;SDS011;61444;59.472;18.306;2023-06-04T07:11:43;0.60;;;0.60;;
11548;SDS011;61444;59.472;18.306;2023-06-04T07:13:52;0.63;;;0.50;;
11548;SDS011;61444;59.472;18.306;2023-06-04T07:16:01;0.53;;;0.50;;
11548;SDS011;61444;59.472;18.306;2023-06-04T07:18:12;0.70;;;0.70;;
11548;SDS011;61444;59.472;18.306;2023-06-04T07:20:21;1.33;;;0.70;;
11548;SDS011;61444;59.472;18.306;2023-06-04T07:22:32;0.63;;;0.60;;
11548;SDS011;61444;59.472;18.306;2023-06-04T07:24:42;1.47;;;0.60;;
11548;SDS011;61444;59.472;18.306;2023-06-04T07:26:51;1.80;;;0.57;;
11548;SDS011;61444;59.472;18.306;2023-06-04T07:29:01;2.03;;;0.60;;
11548;SDS011;61444;59.472;18.306;2023-06-04T07:31:10;1.97;;;0.60;;
11548;SDS011;61444;59.472;18.306;2023-06-04T07:33:21;1.37;;;0.70;;
11548;SDS011;61444;59.472;18.306;2023-06-04T07:35:29;0.90;;;0.60;;
11548;SDS011;61444;59.472;18.306;2023-06-04T07:37:38;1.00;;;0.80;;
11548;SDS011;61444;59.472;18.306;2023-06-04T07:39:48;0.50;;;0.50;;
11548;SDS011;61444;59.472;18.306;2023-06-04T07:41:56;0.67;;;0.60;;
11548;SDS011;61444;59.472;18.306;2023-06-04T07:44:05;0.83;;;0.60;;
11548;SDS011;61444;59.472;18.306;2023-06-04T07:46:14;0.77;;;0.60;;
11548;SDS011;61444;59.472;18.306;2023-06-04T07:48:27;0.50;;;0.50;;
11548;SDS011;61444;59.472;18.306;2023-06-04T07:50:37;0.53;;;0.50;;
11548;SDS011;61444;59.472;18.306;2023-06-04T07:52:47;0.60;;;0.53;;
11548;SDS011;61444;59.472;18.306;2023-06-04T07:54:57;0.77;;;0.57;;
11548;SDS011;61444;59.472;18.306;2023-06-04T07:57:06;0.60;;;0.50;;
11548;SDS011;61444;59.472;18.306;2023-06-04T07:59:15;0.67;;;0.60;;
11548;SDS011;61444;59.472;18.306;2023-06-04T08:01:24;0.60;;;0.60;;
11548;SDS011;61444;59.472;18.306;2023-06-04T08:03:34;0.70;;;0.70;;
11548;SDS011;61444;59.472;18.306;2023-06-04T08:05:44;0.80;;;0.60;;
11548;SDS011;61444;59.472;18.306;2023-06-04T08:07:53;1.03;;;0.60;;
11548;SDS011;61444;59.472;18.306;2023-06-04T08:10:02;0.40;;;0.40;;
11548;SDS011;61444;59.472;18.306;2023-06-04T08:12:11;0.50;;;0.50;;
11548;SDS011;61444;59.472;18.306;2023-06-04T08:14:20;1.57;;;0.90;;
11548;SDS011;61444;59.472;18.306;2023-06-04T08:16:30;0.70;;;0.70;;
11548;SDS011;61444;59.472;18.306;2023-06-04T08:18:41;0.50;;;0.50;;
11548;SDS011;61444;59.472;18.306;2023-06-04T08:20:50;1.03;;;0.60;;
11548;SDS011;61444;59.472;18.306;2023-06-04T08:22:58;1.77;;;0.60;;
11548;SDS011;61444;59.472;18.306;2023-06-04T08:25:08;2.40;;;0.60;;
11548;SDS011;61444;59.472;18.306;2023-06-04T08:27:17;0.70;;;0.50;;
11548;SDS011;61444;59.472;18.306;2023-06-04T08:29:26;1.50;;;0.67;;
11548;SDS011;61444;59.472;18.306;2023-06-04T08:31:34;1.33;;;0.50;;
11548;SDS011;61444;59.472;18.306;2023-06-04T08:33:45;3.73;;;1.00;;
11548;SDS011;61444;59.472;18.306;2023-06-04T08:35:55;11.93;;;2.70;;
11548;SDS011;61444;59.472;18.306;2023-06-04T08:38:04;3.10;;;1.10;;
11548;SDS011;61444;59.472;18.306;2023-06-04T08:40:12;1.43;;;0.70;;
11548;SDS011;61444;59.472;18.306;2023-06-04T08:42:22;2.17;;;0.60;;
11548;SDS011;61444;59.472;18.306;2023-06-04T08:44:35;1.13;;;0.60;;
11548;SDS011;61444;59.472;18.306;2023-06-04T08:46:43;2.40;;;0.70;;
11548;SDS011;61444;59.472;18.306;2023-06-04T08:48:54;9.13;;;2.30;;
11548;SDS011;61444;59.472;18.306;2023-06-04T08:51:08;1.97;;;1.00;;
11548;SDS011;61444;59.472;18.306;2023-06-04T08:53:18;6.57;;;2.40;;
11548;SDS011;61444;59.472;18.306;2023-06-04T08:55:27;0.90;;;0.70;;
11548;SDS011;61444;59.472;18.306;2023-06-04T08:57:35;2.97;;;1.10;;
11548;SDS011;61444;59.472;18.306;2023-06-04T08:59:45;0.50;;;0.50;;
11548;SDS011;61444;59.472;18.306;2023-06-04T09:01:54;1.33;;;0.60;;
11548;SDS011;61444;59.472;18.306;2023-06-04T09:04:06;0.50;;;0.50;;
11548;SDS011;61444;59.472;18.306;2023-06-04T09:06:18;0.70;;;0.70;;
11548;SDS011;61444;59.472;18.306;2023-06-04T09:08:27;6.17;;;1.13;;
11548;SDS011;61444;59.472;18.306;2023-06-04T09:10:39;0.60;;;0.50;;
11548;SDS011;61444;59.472;18.306;2023-06-04T09:12:49;1.10;;;0.60;;
11548;SDS011;61444;59.472;18.306;2023-06-04T09:15:00;0.60;;;0.60;;
11548;SDS011;61444;59.472;18.306;2023-06-04T09:17:09;0.90;;;0.70;;
11548;SDS011;61444;59.472;18.306;2023-06-04T09:19:19;0.70;;;0.67;;
11548;SDS011;61444;59.472;18.306;2023-06-04T09:21:28;1.47;;;0.70;;
11548;SDS011;61444;59.472;18.306;2023-06-04T09:23:43;0.60;;;0.60;;
11548;SDS011;61444;59.472;18.306;2023-06-04T09:25:53;0.47;;;0.47;;
11548;SDS011;61444;59.472;18.306;2023-06-04T09:28:05;0.60;;;0.60;;
11548;SDS011;61444;59.472;18.306;2023-06-04T09:30:14;1.07;;;0.70;;
11548;SDS011;61444;59.472;18.306;2023-06-04T09:32:23;0.90;;;0.70;;
11548;SDS011;61444;59.472;18.306;2023-06-04T09:34:35;0.60;;;0.60;;
11548;SDS011;61444;59.472;18.306;2023-06-04T09:36:50;0.70;;;0.53;;
11548;SDS011;61444;59.472;18.306;2023-06-04T09:39:00;0.50;;;0.50;;
11548;SDS011;61444;59.472;18.306;2023-06-04T09:41:12;0.93;;;0.70;;
11548;SDS011;61444;59.472;18.306;2023-06-04T09:43:22;1.57;;;0.60;;
11548;SDS011;61444;59.472;18.306;2023-06-04T09:45:31;0.50;;;0.50;;
11548;SDS011;61444;59.472;18.306;2023-06-04T09:47:42;1.37;;;0.60;;
11548;SDS011;61444;59.472;18.306;2023-06-04T09:49:54;0.67;;;0.60;;
11548;SDS011;61444;59.472;18.306;2023-06-04T09:52:03;0.70;;;0.50;;
11548;SDS011;61444;59.472;18.306;2023-06-04T09:54:13;0.50;;;0.50;;
11548;SDS011;61444;59.472;18.306;2023-06-04T09:56:22;0.57;;;0.57;;
11548;SDS011;61444;59.472;18.306;2023-06-04T09:58:33;0.80;;;0.50;;
11548;SDS011;61444;59.472;18.306;2023-06-04T10:00:43;1.30;;;0.40;;
11548;SDS011;61444;59.472;18.306;2023-06-04T10:02:55;0.50;;;0.50;;
11548;SDS011;61444;59.472;18.306;2023-06-04T10:05:08;1.63;;;0.63;;
11548;SDS011;61444;59.472;18.306;2023-06-04T10:07:20;0.57;;;0.50;;
11548;SDS011;61444;59.472;18.306;2023-06-04T10:09:30;0.87;;;0.50;;
11548;SDS011;61444;59.472;18.306;2023-06-04T10:11:39;0.57;;;0.57;;
11548;SDS011;61444;59.472;18.306;2023-06-04T10:13:51;0.53;;;0.53;;
11548;SDS011;61444;59.472;18.306;2023-06-04T10:16:03;0.60;;;0.50;;
11548;SDS011;61444;59.472;18.306;2023-06-04T10:18:18;0.60;;;0.60;;
11548;SDS011;61444;59.472;18.306;2023-06-04T10:20:29;0.50;;;0.50;;
11548;SDS011;61444;59.472;18.306;2023-06-04T10:22:39;2.20;;;0.60;;
11548;SDS011;61444;59.472;18.306;2023-06-04T10:24:48;3.37;;;0.83;;
11548;SDS011;61444;59.472;18.306;2023-06-04T10:26:58;0.50;;;0.50;;
11548;SDS011;61444;59.472;18.306;2023-06-04T10:29:07;0.60;;;0.60;;
11548;SDS011;61444;59.472;18.306;2023-06-04T10:31:17;0.93;;;0.50;;
11548;SDS011;61444;59.472;18.306;2023-06-04T10:33:26;0.43;;;0.40;;
11548;SDS011;61444;59.472;18.306;2023-06-04T10:35:37;1.30;;;0.60;;
11548;SDS011;61444;59.472;18.306;2023-06-04T10:37:46;0.40;;;0.40;;
11548;SDS011;61444;59.472;18.306;2023-06-04T10:39:58;0.50;;;0.50;;
11548;SDS011;61444;59.472;18.306;2023-06-04T10:42:07;0.60;;;0.60;;
11548;SDS011;61444;59.472;18.306;2023-06-04T10:44:15;0.60;;;0.60;;
11548;SDS011;61444;59.472;18.306;2023-06-04T10:46:24;0.60;;;0.60;;
11548;SDS011;61444;59.472;18.306;2023-06-04T10:48:33;1.00;;;0.60;;
11548;SDS011;61444;59.472;18.306;2023-06-04T10:50:54;0.70;;;0.60;;
11548;SDS011;61444;59.472;18.306;2023-06-04T10:53:03;0.60;;;0.60;;
11548;SDS011;61444;59.472;18.306;2023-06-04T10:55:12;0.60;;;0.60;;
11548;SDS011;61444;59.472;18.306;2023-06-04T10:57:21;0.50;;;0.50;;
11548;SDS011;61444;59.472;18.306;2023-06-04T10:59:30;0.60;;;0.60;;
11548;SDS011;61444;59.472;18.306;2023-06-04T11:01:39;1.50;;;1.00;;
11548;SDS011;61444;59.472;18.306;2023-06-04T11:03:48;2.30;;;1.00;;
11548;SDS011;61444;59.472;18.306;2023-06-04T11:05:58;1.23;;;1.10;;
11548;SDS011;61444;59.472;18.306;2023-06-04T11:08:07;0.60;;;0.60;;
11548;SDS011;61444;59.472;18.306;2023-06-04T11:10:17;0.70;;;0.70;;
11548;SDS011;61444;59.472;18.306;2023-06-04T11:12:42;0.57;;;0.57;;
11548;SDS011;61444;59.472;18.306;2023-06-04T11:14:54;0.63;;;0.63;;
11548;SDS011;61444;59.472;18.306;2023-06-04T11:17:10;1.00;;;0.90;;
11548;SDS011;61444;59.472;18.306;2023-06-04T11:19:20;0.90;;;0.60;;
11548;SDS011;61444;59.472;18.306;2023-06-04T11:21:34;1.90;;;0.60;;
11548;SDS011;61444;59.472;18.306;2023-06-04T11:23:44;1.33;;;0.60;;
11548;SDS011;61444;59.472;18.306;2023-06-04T11:25:53;1.50;;;0.70;;
11548;SDS011;61444;59.472;18.306;2023-06-04T11:28:02;0.70;;;0.70;;
11548;SDS011;61444;59.472;18.306;2023-06-04T11:30:12;0.80;;;0.70;;
11548;SDS011;61444;59.472;18.306;2023-06-04T11:32:21;0.57;;;0.57;;
11548;SDS011;61444;59.472;18.306;2023-06-04T11:34:31;0.97;;;0.50;;
11548;SDS011;61444;59.472;18.306;2023-06-04T11:36:41;0.60;;;0.60;;
11548;SDS011;61444;59.472;18.306;2023-06-04T11:38:57;0.60;;;0.60;;
11548;SDS011;61444;59.472;18.306;2023-06-04T11:41:06;0.50;;;0.50;;
11548;SDS011;61444;59.472;18.306;2023-06-04T11:43:15;0.60;;;0.60;;
11548;SDS011;61444;59.472;18.306;2023-06-04T11:45:23;1.33;;;0.60;;
11548;SDS011;61444;59.472;18.306;2023-06-04T11:47:33;0.70;;;0.70;;
11548;SDS011;61444;59.472;18.306;2023-06-04T11:49:43;1.90;;;0.90;;
11548;SDS011;61444;59.472;18.306;2023-06-04T11:51:54;0.60;;;0.60;;
11548;SDS011;61444;59.472;18.306;2023-06-04T11:54:03;0.67;;;0.67;;
11548;SDS011;61444;59.472;18.306;2023-06-04T11:56:13;0.70;;;0.70;;
11548;SDS011;61444;59.472;18.306;2023-06-04T11:58:22;1.77;;;0.70;;
11548;SDS011;61444;59.472;18.306;2023-06-04T12:00:32;1.20;;;0.73;;
11548;SDS011;61444;59.472;18.306;2023-06-04T12:02:48;0.70;;;0.70;;
11548;SDS011;61444;59.472;18.306;2023-06-04T12:04:59;0.80;;;0.70;;
11548;SDS011;61444;59.472;18.306;2023-06-04T12:07:23;1.13;;;0.60;;
11548;SDS011;61444;59.472;18.306;2023-06-04T12:09:32;0.90;;;0.83;;
11548;SDS011;61444;59.472;18.306;2023-06-04T12:11:42;0.90;;;0.70;;
11548;SDS011;61444;59.472;18.306;2023-06-04T12:13:51;2.00;;;0.80;;
11548;SDS011;61444;59.472;18.306;2023-06-04T12:16:00;0.80;;;0.77;;
11548;SDS011;61444;59.472;18.306;2023-06-04T12:18:09;0.90;;;0.90;;
11548;SDS011;61444;59.472;18.306;2023-06-04T12:20:18;0.90;;;0.80;;
11548;SDS011;61444;59.472;18.306;2023-06-04T12:22:45;0.70;;;0.70;;
11548;SDS011;61444;59.472;18.306;2023-06-04T12:24:55;0.70;;;0.70;;
11548;SDS011;61444;59.472;18.306;2023-06-04T12:27:07;0.60;;;0.60;;
11548;SDS011;61444;59.472;18.306;2023-06-04T12:29:17;0.60;;;0.60;;
11548;SDS011;61444;59.472;18.306;2023-06-04T12:31:26;0.67;;;0.67;;
11548;SDS011;61444;59.472;18.306;2023-06-04T12:33:40;1.03;;;0.73;;
11548;SDS011;61444;59.472;18.306;2023-06-04T12:35:49;0.80;;;0.80;;
11548;SDS011;61444;59.472;18.306;2023-06-04T12:38:02;1.70;;;0.77;;
11548;SDS011;61444;59.472;18.306;2023-06-04T12:40:11;0.90;;;0.90;;
11548;SDS011;61444;59.472;18.306;2023-06-04T12:42:20;0.63;;;0.57;;
11548;SDS011;61444;59.472;18.306;2023-06-04T12:44:30;0.70;;;0.70;;
11548;SDS011;61444;59.472;18.306;2023-06-04T12:46:41;0.80;;;0.80;;
11548;SDS011;61444;59.472;18.306;2023-06-04T12:48:50;1.63;;;0.70;;
11548;SDS011;61444;59.472;18.306;2023-06-04T12:51:00;0.70;;;0.70;;
11548;SDS011;61444;59.472;18.306;2023-06-04T12:53:11;0.70;;;0.70;;